sensor_id;sensor_type;location;lat;lon;timestamp;temperature;humidity
10903;DHT22;5504;47.312;11.060;2023-12-20T00:01:24;1.50;91.20
10903;DHT22;5504;47.312;11.060;2023-12-20T00:03:50;1.50;91.00
10903;DHT22;5504;47.312;11.060;2023-12-20T00:06:15;1.60;90.90
10903;DHT22;5504;47.312;11.060;2023-12-20T00:08:42;1.50;90.60
10903;DHT22;5504;47.312;11.060;2023-12-20T00:11:07;1.50;90.70
10903;DHT22;5504;47.312;11.060;2023-12-20T00:13:33;1.50;90.70
10903;DHT22;5504;47.312;11.060;2023-12-20T00:15:59;1.60;90.50
10903;DHT22;5504;47.312;11.060;2023-12-20T00:18:24;1.60;90.30
10903;DHT22;5504;47.312;11.060;2023-12-20T00:20:50;1.50;90.50
10903;DHT22;5504;47.312;11.060;2023-12-20T00:23:16;1.60;90.60
10903;DHT22;5504;47.312;11.060;2023-12-20T00:25:42;1.50;90.90
10903;DHT22;5504;47.312;11.060;2023-12-20T00:28:07;1.50;90.80
10903;DHT22;5504;47.312;11.060;2023-12-20T00:30:33;1.50;90.80
10903;DHT22;5504;47.312;11.060;2023-12-20T00:32:59;1.40;90.60
10903;DHT22;5504;47.312;11.060;2023-12-20T00:35:25;1.30;90.60
10903;DHT22;5504;47.312;11.060;2023-12-20T00:37:50;1.30;90.80
10903;DHT22;5504;47.312;11.060;2023-12-20T00:40:16;1.40;91.00
10903;DHT22;5504;47.312;11.060;2023-12-20T00:42:42;1.50;90.80
10903;DHT22;5504;47.312;11.060;2023-12-20T00:45:08;1.50;90.90
10903;DHT22;5504;47.312;11.060;2023-12-20T00:47:34;1.70;90.60
10903;DHT22;5504;47.312;11.060;2023-12-20T00:50:00;1.60;90.50
10903;DHT22;5504;47.312;11.060;2023-12-20T00:52:25;1.60;90.50
10903;DHT22;5504;47.312;11.060;2023-12-20T00:54:51;1.70;90.80
10903;DHT22;5504;47.312;11.060;2023-12-20T00:57:17;1.50;90.80
10903;DHT22;5504;47.312;11.060;2023-12-20T00:59:43;1.40;90.70
10903;DHT22;5504;47.312;11.060;2023-12-20T01:02:09;1.40;91.00
10903;DHT22;5504;47.312;11.060;2023-12-20T01:04:35;1.40;91.10
10903;DHT22;5504;47.312;11.060;2023-12-20T01:07:01;1.60;91.00
10903;DHT22;5504;47.312;11.060;2023-12-20T01:09:27;1.70;90.90
10903;DHT22;5504;47.312;11.060;2023-12-20T01:11:53;1.50;90.80
10903;DHT22;5504;47.312;11.060;2023-12-20T01:14:19;1.40;91.20
10903;DHT22;5504;47.312;11.060;2023-12-20T01:16:45;1.40;91.50
10903;DHT22;5504;47.312;11.060;2023-12-20T01:19:11;1.60;91.40
10903;DHT22;5504;47.312;11.060;2023-12-20T01:21:37;1.50;91.60
10903;DHT22;5504;47.312;11.060;2023-12-20T01:24:03;1.60;91.10
10903;DHT22;5504;47.312;11.060;2023-12-20T01:26:29;1.60;91.10
10903;DHT22;5504;47.312;11.060;2023-12-20T01:28:54;1.60;91.10
10903;DHT22;5504;47.312;11.060;2023-12-20T01:31:20;1.50;91.00
10903;DHT22;5504;47.312;11.060;2023-12-20T01:33:46;1.70;91.10
10903;DHT22;5504;47.312;11.060;2023-12-20T01:36:12;1.80;90.90
10903;DHT22;5504;47.312;11.060;2023-12-20T01:38:38;1.80;90.90
10903;DHT22;5504;47.312;11.060;2023-12-20T01:41:04;1.90;90.70
10903;DHT22;5504;47.312;11.060;2023-12-20T01:43:30;1.90;90.80
10903;DHT22;5504;47.312;11.060;2023-12-20T01:45:57;1.80;90.80
10903;DHT22;5504;47.312;11.060;2023-12-20T01:48:24;1.80;90.90
10903;DHT22;5504;47.312;11.060;2023-12-20T01:50:51;1.90;90.70
10903;DHT22;5504;47.312;11.060;2023-12-20T01:53:17;1.80;90.60
10903;DHT22;5504;47.312;11.060;2023-12-20T01:55:44;1.70;90.90
10903;DHT22;5504;47.312;11.060;2023-12-20T01:58:11;1.90;90.80
10903;DHT22;5504;47.312;11.060;2023-12-20T02:00:37;1.80;90.70
10903;DHT22;5504;47.312;11.060;2023-12-20T02:03:03;1.90;90.80
10903;DHT22;5504;47.312;11.060;2023-12-20T02:05:30;2.00;90.60
10903;DHT22;5504;47.312;11.060;2023-12-20T02:07:56;1.70;90.60
10903;DHT22;5504;47.312;11.060;2023-12-20T02:10:23;1.70;90.70
10903;DHT22;5504;47.312;11.060;2023-12-20T02:12:48;1.70;90.70
10903;DHT22;5504;47.312;11.060;2023-12-20T02:15:14;1.80;90.60
10903;DHT22;5504;47.312;11.060;2023-12-20T02:17:40;1.80;90.50
10903;DHT22;5504;47.312;11.060;2023-12-20T02:20:06;1.70;90.40
10903;DHT22;5504;47.312;11.060;2023-12-20T02:22:32;1.70;90.60
10903;DHT22;5504;47.312;11.060;2023-12-20T02:24:58;1.70;90.80
10903;DHT22;5504;47.312;11.060;2023-12-20T02:27:24;1.70;90.90
10903;DHT22;5504;47.312;11.060;2023-12-20T02:29:50;1.80;90.90
10903;DHT22;5504;47.312;11.060;2023-12-20T02:32:17;1.80;90.90
10903;DHT22;5504;47.312;11.060;2023-12-20T02:34:43;1.80;91.00
10903;DHT22;5504;47.312;11.060;2023-12-20T02:37:09;2.00;90.90
10903;DHT22;5504;47.312;11.060;2023-12-20T02:39:34;2.00;90.60
10903;DHT22;5504;47.312;11.060;2023-12-20T02:42:00;1.90;90.70
10903;DHT22;5504;47.312;11.060;2023-12-20T02:44:26;1.80;90.80
10903;DHT22;5504;47.312;11.060;2023-12-20T02:46:52;1.80;91.00
10903;DHT22;5504;47.312;11.060;2023-12-20T02:49:17;2.00;91.00
10903;DHT22;5504;47.312;11.060;2023-12-20T02:51:43;2.10;90.80
10903;DHT22;5504;47.312;11.060;2023-12-20T02:54:09;2.00;90.90
10903;DHT22;5504;47.312;11.060;2023-12-20T02:56:35;2.10;91.00
10903;DHT22;5504;47.312;11.060;2023-12-20T02:59:01;2.00;91.00
10903;DHT22;5504;47.312;11.060;2023-12-20T03:01:28;2.00;91.10
10903;DHT22;5504;47.312;11.060;2023-12-20T03:03:54;2.30;91.40
10903;DHT22;5504;47.312;11.060;2023-12-20T03:06:20;2.30;90.60
10903;DHT22;5504;47.312;11.060;2023-12-20T03:08:46;2.20;90.70
10903;DHT22;5504;47.312;11.060;2023-12-20T03:11:12;2.20;90.80
10903;DHT22;5504;47.312;11.060;2023-12-20T03:13:37;2.10;90.90
10903;DHT22;5504;47.312;11.060;2023-12-20T03:16:10;2.10;91.10
10903;DHT22;5504;47.312;11.060;2023-12-20T03:18:38;2.30;91.20
10903;DHT22;5504;47.312;11.060;2023-12-20T03:21:05;2.20;90.90
10903;DHT22;5504;47.312;11.060;2023-12-20T03:23:31;2.30;91.10
10903;DHT22;5504;47.312;11.060;2023-12-20T03:25:59;2.30;91.30
10903;DHT22;5504;47.312;11.060;2023-12-20T03:28:26;2.30;91.00
10903;DHT22;5504;47.312;11.060;2023-12-20T03:30:52;2.40;91.10
10903;DHT22;5504;47.312;11.060;2023-12-20T03:33:18;2.30;91.30
10903;DHT22;5504;47.312;11.060;2023-12-20T03:35:44;2.40;91.40
10903;DHT22;5504;47.312;11.060;2023-12-20T03:38:09;2.40;91.40
10903;DHT22;5504;47.312;11.060;2023-12-20T03:40:35;2.40;91.40
10903;DHT22;5504;47.312;11.060;2023-12-20T03:43:01;2.30;91.10
10903;DHT22;5504;47.312;11.060;2023-12-20T03:45:27;2.30;91.40
10903;DHT22;5504;47.312;11.060;2023-12-20T03:47:52;2.50;91.30
10903;DHT22;5504;47.312;11.060;2023-12-20T03:50:26;2.50;91.40
10903;DHT22;5504;47.312;11.060;2023-12-20T03:52:52;2.50;91.00
10903;DHT22;5504;47.312;11.060;2023-12-20T03:55:18;2.50;91.00
10903;DHT22;5504;47.312;11.060;2023-12-20T03:57:44;2.50;90.90
10903;DHT22;5504;47.312;11.060;2023-12-20T04:00:10;2.40;90.70
10903;DHT22;5504;47.312;11.060;2023-12-20T04:02:40;1.90;91.10
10903;DHT22;5504;47.312;11.060;2023-12-20T04:05:07;1.80;92.10
10903;DHT22;5504;47.312;11.060;2023-12-20T04:07:33;2.00;92.10
10903;DHT22;5504;47.312;11.060;2023-12-20T04:09:59;2.10;92.10
10903;DHT22;5504;47.312;11.060;2023-12-20T04:12:26;2.40;91.60
10903;DHT22;5504;47.312;11.060;2023-12-20T04:14:51;2.40;91.60
10903;DHT22;5504;47.312;11.060;2023-12-20T04:17:17;2.20;91.70
10903;DHT22;5504;47.312;11.060;2023-12-20T04:19:43;2.30;92.10
10903;DHT22;5504;47.312;11.060;2023-12-20T04:22:09;2.40;92.20
10903;DHT22;5504;47.312;11.060;2023-12-20T04:24:35;2.50;92.10
10903;DHT22;5504;47.312;11.060;2023-12-20T04:27:01;2.50;92.20
10903;DHT22;5504;47.312;11.060;2023-12-20T04:29:27;2.60;91.80
10903;DHT22;5504;47.312;11.060;2023-12-20T04:31:53;2.60;91.90
10903;DHT22;5504;47.312;11.060;2023-12-20T04:34:18;2.70;91.80
10903;DHT22;5504;47.312;11.060;2023-12-20T04:36:45;2.70;91.80
10903;DHT22;5504;47.312;11.060;2023-12-20T04:39:12;2.20;91.80
10903;DHT22;5504;47.312;11.060;2023-12-20T04:41:38;2.10;92.10
10903;DHT22;5504;47.312;11.060;2023-12-20T04:44:04;2.30;92.10
10903;DHT22;5504;47.312;11.060;2023-12-20T04:46:30;2.40;91.90
10903;DHT22;5504;47.312;11.060;2023-12-20T04:48:55;2.40;91.60
10903;DHT22;5504;47.312;11.060;2023-12-20T04:51:21;2.30;91.50
10903;DHT22;5504;47.312;11.060;2023-12-20T04:53:47;2.40;91.50
10903;DHT22;5504;47.312;11.060;2023-12-20T04:56:13;2.40;91.40
10903;DHT22;5504;47.312;11.060;2023-12-20T04:58:38;2.00;91.60
10903;DHT22;5504;47.312;11.060;2023-12-20T05:01:08;2.20;91.80
10903;DHT22;5504;47.312;11.060;2023-12-20T05:03:34;2.30;91.70
10903;DHT22;5504;47.312;11.060;2023-12-20T05:06:00;2.50;91.60
10903;DHT22;5504;47.312;11.060;2023-12-20T05:08:26;2.50;91.40
10903;DHT22;5504;47.312;11.060;2023-12-20T05:10:54;2.60;91.30
10903;DHT22;5504;47.312;11.060;2023-12-20T05:13:20;2.30;91.10
10903;DHT22;5504;47.312;11.060;2023-12-20T05:15:45;2.50;91.30
10903;DHT22;5504;47.312;11.060;2023-12-20T05:18:12;2.50;91.20
10903;DHT22;5504;47.312;11.060;2023-12-20T05:20:38;2.30;91.20
10903;DHT22;5504;47.312;11.060;2023-12-20T05:23:04;2.30;91.20
10903;DHT22;5504;47.312;11.060;2023-12-20T05:25:30;2.30;91.30
10903;DHT22;5504;47.312;11.060;2023-12-20T05:27:55;2.40;91.40
10903;DHT22;5504;47.312;11.060;2023-12-20T05:30:21;2.40;91.40
10903;DHT22;5504;47.312;11.060;2023-12-20T05:32:47;2.50;91.30
10903;DHT22;5504;47.312;11.060;2023-12-20T05:35:13;2.60;91.30
10903;DHT22;5504;47.312;11.060;2023-12-20T05:37:39;2.60;91.20
10903;DHT22;5504;47.312;11.060;2023-12-20T05:40:05;2.70;91.20
10903;DHT22;5504;47.312;11.060;2023-12-20T05:42:31;2.80;91.10
10903;DHT22;5504;47.312;11.060;2023-12-20T05:44:57;3.00;90.80
10903;DHT22;5504;47.312;11.060;2023-12-20T05:47:22;2.90;90.60
10903;DHT22;5504;47.312;11.060;2023-12-20T05:49:48;2.90;90.70
10903;DHT22;5504;47.312;11.060;2023-12-20T05:52:15;2.80;90.70
10903;DHT22;5504;47.312;11.060;2023-12-20T05:54:41;2.90;90.70
10903;DHT22;5504;47.312;11.060;2023-12-20T05:57:07;2.80;90.70
10903;DHT22;5504;47.312;11.060;2023-12-20T05:59:32;2.80;90.90
10903;DHT22;5504;47.312;11.060;2023-12-20T06:01:58;2.80;91.00
10903;DHT22;5504;47.312;11.060;2023-12-20T06:04:24;3.00;90.80
10903;DHT22;5504;47.312;11.060;2023-12-20T06:06:50;2.70;90.60
10903;DHT22;5504;47.312;11.060;2023-12-20T06:09:15;2.30;91.50
10903;DHT22;5504;47.312;11.060;2023-12-20T06:11:41;2.50;91.50
10903;DHT22;5504;47.312;11.060;2023-12-20T06:14:07;2.50;91.50
10903;DHT22;5504;47.312;11.060;2023-12-20T06:16:32;2.60;91.50
10903;DHT22;5504;47.312;11.060;2023-12-20T06:18:58;2.60;91.20
10903;DHT22;5504;47.312;11.060;2023-12-20T06:21:24;2.50;91.50
10903;DHT22;5504;47.312;11.060;2023-12-20T06:23:49;2.20;91.80
10903;DHT22;5504;47.312;11.060;2023-12-20T06:26:15;2.40;92.00
10903;DHT22;5504;47.312;11.060;2023-12-20T06:28:41;2.50;91.80
10903;DHT22;5504;47.312;11.060;2023-12-20T06:31:07;2.60;91.70
10903;DHT22;5504;47.312;11.060;2023-12-20T06:33:32;2.70;91.40
10903;DHT22;5504;47.312;11.060;2023-12-20T06:35:58;2.70;91.20
10903;DHT22;5504;47.312;11.060;2023-12-20T06:38:24;2.80;91.10
10903;DHT22;5504;47.312;11.060;2023-12-20T06:40:50;2.70;90.90
10903;DHT22;5504;47.312;11.060;2023-12-20T06:43:15;2.80;91.10
10903;DHT22;5504;47.312;11.060;2023-12-20T06:45:41;2.80;91.30
10903;DHT22;5504;47.312;11.060;2023-12-20T06:48:07;2.80;90.80
10903;DHT22;5504;47.312;11.060;2023-12-20T06:50:33;2.70;90.70
10903;DHT22;5504;47.312;11.060;2023-12-20T06:52:59;2.80;91.10
10903;DHT22;5504;47.312;11.060;2023-12-20T06:55:24;2.80;90.90
10903;DHT22;5504;47.312;11.060;2023-12-20T06:57:50;2.70;91.10
10903;DHT22;5504;47.312;11.060;2023-12-20T07:00:16;2.60;91.30
10903;DHT22;5504;47.312;11.060;2023-12-20T07:02:43;2.60;91.50
10903;DHT22;5504;47.312;11.060;2023-12-20T07:05:09;2.60;91.50
10903;DHT22;5504;47.312;11.060;2023-12-20T07:07:35;2.70;91.70
10903;DHT22;5504;47.312;11.060;2023-12-20T07:10:01;2.70;91.50
10903;DHT22;5504;47.312;11.060;2023-12-20T07:12:26;2.70;91.50
10903;DHT22;5504;47.312;11.060;2023-12-20T07:14:52;2.70;91.30
10903;DHT22;5504;47.312;11.060;2023-12-20T07:17:18;2.90;91.10
10903;DHT22;5504;47.312;11.060;2023-12-20T07:19:43;2.90;90.90
10903;DHT22;5504;47.312;11.060;2023-12-20T07:22:09;2.90;90.90
10903;DHT22;5504;47.312;11.060;2023-12-20T07:24:35;2.90;90.90
10903;DHT22;5504;47.312;11.060;2023-12-20T07:27:01;2.90;91.10
10903;DHT22;5504;47.312;11.060;2023-12-20T07:29:27;2.90;91.20
10903;DHT22;5504;47.312;11.060;2023-12-20T07:31:53;2.90;91.20
10903;DHT22;5504;47.312;11.060;2023-12-20T07:34:22;2.70;91.40
10903;DHT22;5504;47.312;11.060;2023-12-20T07:36:48;2.70;91.50
10903;DHT22;5504;47.312;11.060;2023-12-20T07:39:14;2.80;91.60
10903;DHT22;5504;47.312;11.060;2023-12-20T07:41:40;2.90;91.60
10903;DHT22;5504;47.312;11.060;2023-12-20T07:44:07;3.00;91.60
10903;DHT22;5504;47.312;11.060;2023-12-20T07:46:33;2.90;91.60
10903;DHT22;5504;47.312;11.060;2023-12-20T07:48:58;2.90;91.60
10903;DHT22;5504;47.312;11.060;2023-12-20T07:51:24;3.00;91.50
10903;DHT22;5504;47.312;11.060;2023-12-20T07:53:51;3.00;91.50
10903;DHT22;5504;47.312;11.060;2023-12-20T07:56:18;3.00;91.60
10903;DHT22;5504;47.312;11.060;2023-12-20T07:58:44;3.00;91.70
10903;DHT22;5504;47.312;11.060;2023-12-20T08:01:13;3.30;91.60
10903;DHT22;5504;47.312;11.060;2023-12-20T08:03:39;3.30;91.00
10903;DHT22;5504;47.312;11.060;2023-12-20T08:06:04;3.10;91.00
10903;DHT22;5504;47.312;11.060;2023-12-20T08:08:30;3.20;91.30
10903;DHT22;5504;47.312;11.060;2023-12-20T08:10:56;3.30;91.30
10903;DHT22;5504;47.312;11.060;2023-12-20T08:13:26;3.40;91.10
10903;DHT22;5504;47.312;11.060;2023-12-20T08:15:52;3.30;90.80
10903;DHT22;5504;47.312;11.060;2023-12-20T08:18:18;3.20;90.90
10903;DHT22;5504;47.312;11.060;2023-12-20T08:20:44;3.20;91.10
10903;DHT22;5504;47.312;11.060;2023-12-20T08:23:10;3.30;91.10
10903;DHT22;5504;47.312;11.060;2023-12-20T08:25:36;3.40;91.10
10903;DHT22;5504;47.312;11.060;2023-12-20T08:28:02;3.50;91.00
10903;DHT22;5504;47.312;11.060;2023-12-20T08:30:29;3.50;90.90
10903;DHT22;5504;47.312;11.060;2023-12-20T08:32:56;3.70;90.80
10903;DHT22;5504;47.312;11.060;2023-12-20T08:35:22;3.60;90.80
10903;DHT22;5504;47.312;11.060;2023-12-20T08:37:48;3.70;90.70
10903;DHT22;5504;47.312;11.060;2023-12-20T08:40:13;3.70;90.70
10903;DHT22;5504;47.312;11.060;2023-12-20T08:42:39;3.90;90.50
10903;DHT22;5504;47.312;11.060;2023-12-20T08:45:05;3.80;90.60
10903;DHT22;5504;47.312;11.060;2023-12-20T08:47:31;3.70;90.80
10903;DHT22;5504;47.312;11.060;2023-12-20T08:49:57;3.70;90.80
10903;DHT22;5504;47.312;11.060;2023-12-20T08:52:25;3.80;90.80
10903;DHT22;5504;47.312;11.060;2023-12-20T08:54:53;3.80;90.40
10903;DHT22;5504;47.312;11.060;2023-12-20T08:57:22;3.80;90.60
10903;DHT22;5504;47.312;11.060;2023-12-20T08:59:50;3.70;90.50
10903;DHT22;5504;47.312;11.060;2023-12-20T09:02:16;3.80;90.70
10903;DHT22;5504;47.312;11.060;2023-12-20T09:04:42;3.90;90.50
10903;DHT22;5504;47.312;11.060;2023-12-20T09:07:21;4.00;90.50
10903;DHT22;5504;47.312;11.060;2023-12-20T09:09:47;4.00;90.50
10903;DHT22;5504;47.312;11.060;2023-12-20T09:12:13;4.00;90.40
10903;DHT22;5504;47.312;11.060;2023-12-20T09:14:39;3.90;90.20
10903;DHT22;5504;47.312;11.060;2023-12-20T09:17:04;3.80;90.30
10903;DHT22;5504;47.312;11.060;2023-12-20T09:19:30;3.80;90.50
10903;DHT22;5504;47.312;11.060;2023-12-20T09:21:56;3.90;90.70
10903;DHT22;5504;47.312;11.060;2023-12-20T09:24:21;3.90;90.40
10903;DHT22;5504;47.312;11.060;2023-12-20T09:26:47;4.00;90.50
10903;DHT22;5504;47.312;11.060;2023-12-20T09:29:13;4.10;90.40
10903;DHT22;5504;47.312;11.060;2023-12-20T09:31:41;4.20;90.40
10903;DHT22;5504;47.312;11.060;2023-12-20T09:34:09;4.20;90.10
10903;DHT22;5504;47.312;11.060;2023-12-20T09:36:35;4.30;90.10
10903;DHT22;5504;47.312;11.060;2023-12-20T09:39:01;4.30;90.00
10903;DHT22;5504;47.312;11.060;2023-12-20T09:41:32;4.30;89.70
10903;DHT22;5504;47.312;11.060;2023-12-20T09:44:03;4.10;90.00
10903;DHT22;5504;47.312;11.060;2023-12-20T09:46:32;4.10;90.30
10903;DHT22;5504;47.312;11.060;2023-12-20T09:49:00;4.00;90.20
10903;DHT22;5504;47.312;11.060;2023-12-20T09:51:28;4.20;90.20
10903;DHT22;5504;47.312;11.060;2023-12-20T09:53:55;4.20;90.00
10903;DHT22;5504;47.312;11.060;2023-12-20T09:56:22;4.30;89.90
10903;DHT22;5504;47.312;11.060;2023-12-20T09:58:48;4.60;89.70
10903;DHT22;5504;47.312;11.060;2023-12-20T10:01:15;4.60;89.10
10903;DHT22;5504;47.312;11.060;2023-12-20T10:03:41;4.60;89.40
10903;DHT22;5504;47.312;11.060;2023-12-20T10:06:07;4.50;89.10
10903;DHT22;5504;47.312;11.060;2023-12-20T10:08:34;4.30;90.00
10903;DHT22;5504;47.312;11.060;2023-12-20T10:11:00;4.50;90.20
10903;DHT22;5504;47.312;11.060;2023-12-20T10:13:28;4.60;90.20
10903;DHT22;5504;47.312;11.060;2023-12-20T10:15:55;4.80;90.00
10903;DHT22;5504;47.312;11.060;2023-12-20T10:18:21;4.80;89.20
10903;DHT22;5504;47.312;11.060;2023-12-20T10:20:47;4.90;88.70
10903;DHT22;5504;47.312;11.060;2023-12-20T10:23:15;4.90;88.10
10903;DHT22;5504;47.312;11.060;2023-12-20T10:25:41;4.90;87.80
10903;DHT22;5504;47.312;11.060;2023-12-20T10:28:14;5.00;87.10
10903;DHT22;5504;47.312;11.060;2023-12-20T10:30:41;4.90;87.70
10903;DHT22;5504;47.312;11.060;2023-12-20T10:33:07;5.00;88.10
10903;DHT22;5504;47.312;11.060;2023-12-20T10:35:34;5.10;87.00
10903;DHT22;5504;47.312;11.060;2023-12-20T10:38:03;5.10;86.70
10903;DHT22;5504;47.312;11.060;2023-12-20T10:40:31;5.40;87.90
10903;DHT22;5504;47.312;11.060;2023-12-20T10:42:58;5.60;86.60
10903;DHT22;5504;47.312;11.060;2023-12-20T10:45:25;5.70;84.50
10903;DHT22;5504;47.312;11.060;2023-12-20T10:47:51;5.80;84.50
10903;DHT22;5504;47.312;11.060;2023-12-20T10:50:19;6.00;84.30
10903;DHT22;5504;47.312;11.060;2023-12-20T10:52:47;6.20;83.40
10903;DHT22;5504;47.312;11.060;2023-12-20T10:55:13;6.20;83.00
10903;DHT22;5504;47.312;11.060;2023-12-20T10:57:39;6.10;82.60
10903;DHT22;5504;47.312;11.060;2023-12-20T11:00:08;6.10;82.80
10903;DHT22;5504;47.312;11.060;2023-12-20T11:02:40;6.30;83.50
10903;DHT22;5504;47.312;11.060;2023-12-20T11:07:58;6.80;82.60
10903;DHT22;5504;47.312;11.060;2023-12-20T11:10:47;7.00;81.70
10903;DHT22;5504;47.312;11.060;2023-12-20T11:13:17;7.10;81.90
10903;DHT22;5504;47.312;11.060;2023-12-20T11:15:43;7.10;81.80
10903;DHT22;5504;47.312;11.060;2023-12-20T11:18:09;7.00;80.80
10903;DHT22;5504;47.312;11.060;2023-12-20T11:20:36;6.50;81.00
10903;DHT22;5504;47.312;11.060;2023-12-20T11:23:03;6.30;82.60
10903;DHT22;5504;47.312;11.060;2023-12-20T11:25:29;6.40;81.50
10903;DHT22;5504;47.312;11.060;2023-12-20T11:28:09;6.70;81.00
10903;DHT22;5504;47.312;11.060;2023-12-20T11:30:52;6.90;81.00
10903;DHT22;5504;47.312;11.060;2023-12-20T11:33:23;7.00;80.40
10903;DHT22;5504;47.312;11.060;2023-12-20T11:35:49;7.00;79.90
10903;DHT22;5504;47.312;11.060;2023-12-20T11:38:15;7.20;79.80
10903;DHT22;5504;47.312;11.060;2023-12-20T11:40:44;7.30;79.90
10903;DHT22;5504;47.312;11.060;2023-12-20T11:43:10;7.20;79.80
10903;DHT22;5504;47.312;11.060;2023-12-20T11:45:35;6.80;79.70
10903;DHT22;5504;47.312;11.060;2023-12-20T11:48:05;6.70;80.90
10903;DHT22;5504;47.312;11.060;2023-12-20T11:50:31;6.60;81.20
10903;DHT22;5504;47.312;11.060;2023-12-20T11:52:57;6.60;81.40
10903;DHT22;5504;47.312;11.060;2023-12-20T11:55:24;6.30;80.20
10903;DHT22;5504;47.312;11.060;2023-12-20T11:57:50;6.30;80.80
10903;DHT22;5504;47.312;11.060;2023-12-20T12:00:17;6.70;81.60
10903;DHT22;5504;47.312;11.060;2023-12-20T12:02:43;6.80;79.80
10903;DHT22;5504;47.312;11.060;2023-12-20T12:05:09;6.70;79.80
10903;DHT22;5504;47.312;11.060;2023-12-20T12:07:35;6.50;79.70
10903;DHT22;5504;47.312;11.060;2023-12-20T12:10:01;6.40;80.40
10903;DHT22;5504;47.312;11.060;2023-12-20T12:12:27;6.40;81.30
10903;DHT22;5504;47.312;11.060;2023-12-20T12:14:55;6.20;81.00
10903;DHT22;5504;47.312;11.060;2023-12-20T12:17:22;6.00;81.50
10903;DHT22;5504;47.312;11.060;2023-12-20T12:19:47;6.10;81.70
10903;DHT22;5504;47.312;11.060;2023-12-20T12:22:14;6.30;81.60
10903;DHT22;5504;47.312;11.060;2023-12-20T12:24:43;6.30;81.10
10903;DHT22;5504;47.312;11.060;2023-12-20T12:27:09;5.90;81.70
10903;DHT22;5504;47.312;11.060;2023-12-20T12:29:36;6.10;82.20
10903;DHT22;5504;47.312;11.060;2023-12-20T12:32:06;6.20;82.40
10903;DHT22;5504;47.312;11.060;2023-12-20T12:34:35;5.80;82.10
10903;DHT22;5504;47.312;11.060;2023-12-20T12:37:02;5.80;83.20
10903;DHT22;5504;47.312;11.060;2023-12-20T12:39:29;5.90;83.60
10903;DHT22;5504;47.312;11.060;2023-12-20T12:41:55;5.80;84.30
10903;DHT22;5504;47.312;11.060;2023-12-20T12:44:22;5.90;83.80
10903;DHT22;5504;47.312;11.060;2023-12-20T12:46:50;5.90;84.20
10903;DHT22;5504;47.312;11.060;2023-12-20T12:49:20;5.90;84.30
10903;DHT22;5504;47.312;11.060;2023-12-20T12:51:47;5.90;84.70
10903;DHT22;5504;47.312;11.060;2023-12-20T12:54:12;5.90;84.60
10903;DHT22;5504;47.312;11.060;2023-12-20T12:56:39;5.90;84.80
10903;DHT22;5504;47.312;11.060;2023-12-20T12:59:05;6.00;84.70
10903;DHT22;5504;47.312;11.060;2023-12-20T13:01:31;6.20;84.60
10903;DHT22;5504;47.312;11.060;2023-12-20T13:03:57;6.20;83.10
10903;DHT22;5504;47.312;11.060;2023-12-20T13:06:23;5.90;83.10
10903;DHT22;5504;47.312;11.060;2023-12-20T13:08:49;5.90;83.50
10903;DHT22;5504;47.312;11.060;2023-12-20T13:11:15;5.80;84.20
10903;DHT22;5504;47.312;11.060;2023-12-20T13:13:41;5.60;84.80
10903;DHT22;5504;47.312;11.060;2023-12-20T13:16:07;5.70;85.50
10903;DHT22;5504;47.312;11.060;2023-12-20T13:18:33;5.70;85.30
10903;DHT22;5504;47.312;11.060;2023-12-20T13:20:58;5.80;84.50
10903;DHT22;5504;47.312;11.060;2023-12-20T13:23:24;5.50;84.70
10903;DHT22;5504;47.312;11.060;2023-12-20T13:25:50;5.40;85.80
10903;DHT22;5504;47.312;11.060;2023-12-20T13:28:16;5.50;86.70
10903;DHT22;5504;47.312;11.060;2023-12-20T13:30:41;5.20;86.50
10903;DHT22;5504;47.312;11.060;2023-12-20T13:33:08;5.30;86.90
10903;DHT22;5504;47.312;11.060;2023-12-20T13:35:34;5.30;87.30
10903;DHT22;5504;47.312;11.060;2023-12-20T13:38:00;5.20;86.50
10903;DHT22;5504;47.312;11.060;2023-12-20T13:40:26;5.40;86.50
10903;DHT22;5504;47.312;11.060;2023-12-20T13:42:52;5.50;86.30
10903;DHT22;5504;47.312;11.060;2023-12-20T13:45:18;5.50;86.10
10903;DHT22;5504;47.312;11.060;2023-12-20T13:47:44;5.40;86.40
10903;DHT22;5504;47.312;11.060;2023-12-20T13:50:09;5.50;86.80
10903;DHT22;5504;47.312;11.060;2023-12-20T13:52:35;5.30;86.70
10903;DHT22;5504;47.312;11.060;2023-12-20T13:55:02;5.40;87.20
10903;DHT22;5504;47.312;11.060;2023-12-20T13:57:27;5.20;86.50
10903;DHT22;5504;47.312;11.060;2023-12-20T13:59:55;5.30;86.90
10903;DHT22;5504;47.312;11.060;2023-12-20T14:02:23;5.30;87.80
10903;DHT22;5504;47.312;11.060;2023-12-20T14:04:49;5.50;88.00
10903;DHT22;5504;47.312;11.060;2023-12-20T14:07:14;5.60;86.60
10903;DHT22;5504;47.312;11.060;2023-12-20T14:09:41;5.50;86.40
10903;DHT22;5504;47.312;11.060;2023-12-20T14:12:12;5.60;86.70
10903;DHT22;5504;47.312;11.060;2023-12-20T14:14:38;5.60;86.70
10903;DHT22;5504;47.312;11.060;2023-12-20T14:17:03;5.50;86.80
10903;DHT22;5504;47.312;11.060;2023-12-20T14:19:32;5.50;86.90
10903;DHT22;5504;47.312;11.060;2023-12-20T14:21:58;5.30;86.70
10903;DHT22;5504;47.312;11.060;2023-12-20T14:24:27;5.40;86.70
10903;DHT22;5504;47.312;11.060;2023-12-20T14:26:53;5.50;86.70
10903;DHT22;5504;47.312;11.060;2023-12-20T14:29:18;5.20;86.40
10903;DHT22;5504;47.312;11.060;2023-12-20T14:31:44;5.30;87.20
10903;DHT22;5504;47.312;11.060;2023-12-20T14:34:10;5.30;87.00
10903;DHT22;5504;47.312;11.060;2023-12-20T14:36:37;5.20;87.20
10903;DHT22;5504;47.312;11.060;2023-12-20T14:39:03;5.20;87.70
10903;DHT22;5504;47.312;11.060;2023-12-20T14:41:30;5.00;87.30
10903;DHT22;5504;47.312;11.060;2023-12-20T14:43:56;5.00;87.90
10903;DHT22;5504;47.312;11.060;2023-12-20T14:46:21;4.90;88.40
10903;DHT22;5504;47.312;11.060;2023-12-20T14:48:47;5.10;87.60
10903;DHT22;5504;47.312;11.060;2023-12-20T14:51:14;4.90;88.00
10903;DHT22;5504;47.312;11.060;2023-12-20T14:53:40;4.90;88.30
10903;DHT22;5504;47.312;11.060;2023-12-20T14:56:08;4.90;88.20
10903;DHT22;5504;47.312;11.060;2023-12-20T14:58:33;4.90;88.10
10903;DHT22;5504;47.312;11.060;2023-12-20T15:01:00;4.70;88.20
10903;DHT22;5504;47.312;11.060;2023-12-20T15:03:26;4.50;88.30
10903;DHT22;5504;47.312;11.060;2023-12-20T15:05:52;4.60;88.90
10903;DHT22;5504;47.312;11.060;2023-12-20T15:08:18;4.50;88.60
10903;DHT22;5504;47.312;11.060;2023-12-20T15:10:43;4.50;88.60
10903;DHT22;5504;47.312;11.060;2023-12-20T15:13:09;4.50;88.60
10903;DHT22;5504;47.312;11.060;2023-12-20T15:15:35;4.30;88.20
10903;DHT22;5504;47.312;11.060;2023-12-20T15:18:01;4.20;88.00
10903;DHT22;5504;47.312;11.060;2023-12-20T15:20:29;4.20;89.20
10903;DHT22;5504;47.312;11.060;2023-12-20T15:22:55;4.10;89.10
10903;DHT22;5504;47.312;11.060;2023-12-20T15:25:20;3.90;90.20
10903;DHT22;5504;47.312;11.060;2023-12-20T15:27:50;3.90;90.30
10903;DHT22;5504;47.312;11.060;2023-12-20T15:30:20;4.00;90.10
10903;DHT22;5504;47.312;11.060;2023-12-20T15:32:45;3.80;90.00
10903;DHT22;5504;47.312;11.060;2023-12-20T15:35:11;3.80;90.20
10903;DHT22;5504;47.312;11.060;2023-12-20T15:37:40;3.70;90.10
10903;DHT22;5504;47.312;11.060;2023-12-20T15:40:10;3.60;90.40
10903;DHT22;5504;47.312;11.060;2023-12-20T15:42:39;3.70;90.50